Terminal Aerodrome Forecast
Issued by NWS Upton, NY

Home | Current Version | Previous Version | Text Only | Print | Product List | Glossary On
Versions: 1 2 3 4 5 6 7 8 9 10 11 12 13 14 15 16 17 18 19 20 21 22 23 24 25 26
000
FTUS41 KOKX 181700
TAFISP
TAF
KISP 181730Z 1818/1918 35006KT P6SM FEW070 SCT250
     FM182000 31007KT P6SM FEW070 SCT250
     FM190200 36007KT P6SM SCT070
     FM190600 02010KT P6SM SCT070
     FM191500 05013KT P6SM FEW050 SCT250=

USA.gov is the U.S. government's official web portal to all federal, state and local government web resources and services.